Time;durP1;ratioP1;P1;durP2;ratioP2;P2;SDS_P1;SDS_P2;PMS_P1;PMS_P2;Temp;Humidity;BMP_temperature;BMP_pressure;BME280_temperature;BME280_humidity;BME280_pressure;Samples;Min_cycle;Max_cycle;Signal;HPM_P1;HPM_P2
2021/08/24 00:01:23;;;;;;;7.40;6.70;;;16.80;99.90;;;;;;4989715;28;20199;-52
2021/08/24 00:03:48;;;;;;;7.87;7.10;;;16.60;99.90;;;;;;4989022;28;20180;-49
2021/08/24 00:06:14;;;;;;;7.60;7.00;;;16.80;99.90;;;;;;4988961;28;20295;-49
2021/08/24 00:08:41;;;;;;;7.40;6.80;;;16.50;99.90;;;;;;4991569;28;20226;-50
2021/08/24 00:11:09;;;;;;;7.15;6.65;;;16.70;99.90;;;;;;4986887;28;20190;-49
2021/08/24 00:13:35;;;;;;;8.20;7.40;;;16.50;99.90;;;;;;4990859;28;20476;-49
2021/08/24 00:16:01;;;;;;;7.63;6.97;;;16.40;99.90;;;;;;4990512;28;20322;-49
2021/08/24 00:18:26;;;;;;;9.93;7.40;;;16.50;99.90;;;;;;4988728;28;20925;-49
2021/08/24 00:20:54;;;;;;;7.50;6.90;;;16.40;99.90;;;;;;4990756;28;20206;-49
2021/08/24 00:23:23;;;;;;;7.03;6.53;;;16.50;99.90;;;;;;4990964;28;20179;-49
2021/08/24 00:25:56;;;;;;;7.25;6.63;;;16.60;99.90;;;;;;4987398;28;20216;-49
2021/08/24 00:28:22;;;;;;;7.00;6.40;;;16.70;99.90;;;;;;4988748;28;20538;-50
2021/08/24 00:30:49;;;;;;;8.50;7.18;;;16.60;99.90;;;;;;4989611;28;20564;-49
2021/08/24 00:33:16;;;;;;;7.55;6.95;;;16.60;99.90;;;;;;4989637;28;20219;-49
2021/08/24 00:35:42;;;;;;;7.80;7.20;;;16.60;99.90;;;;;;4988712;28;20195;-51
2021/08/24 00:38:12;;;;;;;7.90;7.30;;;16.80;99.90;;;;;;4987668;28;20641;-50
2021/08/24 00:40:39;;;;;;;6.90;6.30;;;16.30;99.90;;;;;;4987787;28;20183;-51
2021/08/24 00:43:07;;;;;;;7.75;7.07;;;16.40;99.90;;;;;;4986448;28;20183;-50
2021/08/24 00:45:42;;;;;;;7.72;7.03;;;16.70;99.90;;;;;;4990836;28;20242;-50
2021/08/24 00:48:09;;;;;;;7.50;6.88;;;16.60;99.90;;;;;;4990704;28;20187;-50
2021/08/24 00:50:44;;;;;;;8.32;7.63;;;16.90;99.90;;;;;;4986315;28;20180;-50
2021/08/24 00:53:13;;;;;;;7.72;7.03;;;17.00;99.90;;;;;;4990331;28;20641;-50
2021/08/24 00:55:41;;;;;;;7.15;6.50;;;16.70;99.90;;;;;;4988893;28;20186;-50
2021/08/24 00:58:12;;;;;;;5.70;5.30;;;16.80;99.90;;;;;;4989954;28;20198;-50
2021/08/24 01:00:40;;;;;;;6.65;6.10;;;16.90;99.90;;;;;;4990316;28;20184;-50
2021/08/24 01:03:28;;;;;;;5.55;5.05;;;16.90;99.90;;;;;;4990610;28;20180;-50
2021/08/24 01:06:01;;;;;;;6.03;5.53;;;16.80;99.90;;;;;;4981361;28;20277;-50
2021/08/24 01:08:38;;;;;;;6.00;5.40;;;16.90;99.90;;;;;;4990201;28;20191;-50
2021/08/24 01:11:13;;;;;;;6.63;6.00;;;16.80;99.90;;;;;;4985411;28;20645;-50
2021/08/24 01:13:54;;;;;;;5.90;5.40;;;17.00;99.90;;;;;;4984236;28;20273;-50
2021/08/24 01:17:04;;;;;;;5.85;5.35;;;16.30;99.90;;;;;;4990319;28;20203;-50
2021/08/24 01:20:08;;;;;;;6.30;5.70;;;17.00;99.90;;;;;;4974705;28;20196;-50
2021/08/24 01:22:46;;;;;;;6.40;5.90;;;16.70;99.90;;;;;;4976421;28;20217;-50
2021/08/24 01:25:25;;;;;;;8.30;6.18;;;17.00;99.90;;;;;;4990904;28;20613;-49
2021/08/24 01:28:02;;;;;;;5.70;5.20;;;16.70;99.90;;;;;;4990484;28;20249;-50
2021/08/24 01:30:59;;;;;;;6.22;5.63;;;16.60;99.90;;;;;;4990065;28;20172;-50
2021/08/24 01:33:48;;;;;;;5.90;5.40;;;16.40;99.90;;;;;;4990147;28;20678;-51
2021/08/24 01:36:24;;;;;;;7.00;5.15;;;16.40;99.90;;;;;;4979383;28;20226;-50
2021/08/24 01:38:50;;;;;;;5.72;5.20;;;16.50;99.90;;;;;;4980461;28;20269;-51
2021/08/24 01:41:27;;;;;;;5.37;4.97;;;16.50;99.90;;;;;;4982799;28;20721;-51
2021/08/24 01:44:20;;;;;;;5.30;4.90;;;16.90;99.90;;;;;;4991111;28;20214;-49
2021/08/24 01:47:04;;;;;;;6.25;5.47;;;16.60;99.90;;;;;;4990567;28;20269;-50
2021/08/24 01:49:38;;;;;;;4.85;4.43;;;16.80;99.90;;;;;;4986743;28;20191;-50
2021/08/24 01:52:10;;;;;;;5.25;4.75;;;16.60;99.90;;;;;;4990007;28;20211;-50
2021/08/24 01:54:43;;;;;;;5.35;4.30;;;16.30;99.90;;;;;;4990073;28;20192;-50
2021/08/24 01:57:17;;;;;;;6.10;5.60;;;16.50;99.90;;;;;;4987692;28;20200;-49
2021/08/24 01:59:53;;;;;;;5.30;4.82;;;16.40;99.90;;;;;;4990124;28;20187;-49
2021/08/24 02:02:27;;;;;;;5.10;4.57;;;16.40;99.90;;;;;;4990459;28;20567;-50
2021/08/24 02:05:03;;;;;;;5.40;5.00;;;16.50;99.90;;;;;;4990116;28;20235;-50
2021/08/24 02:07:32;;;;;;;5.57;5.10;;;16.20;99.90;;;;;;4990471;28;20546;-49
2021/08/24 02:10:04;;;;;;;5.28;4.88;;;16.50;99.90;;;;;;4993567;28;20183;-50
2021/08/24 02:12:33;;;;;;;6.40;4.90;;;16.50;99.90;;;;;;4987184;28;20287;-50
2021/08/24 02:15:01;;;;;;;5.25;4.55;;;16.40;99.90;;;;;;4993262;28;20184;-49
2021/08/24 02:17:29;;;;;;;5.38;4.85;;;16.40;99.90;;;;;;4993258;28;20203;-49
2021/08/24 02:20:02;;;;;;;5.20;4.70;;;16.10;99.90;;;;;;4986649;28;20195;-50
2021/08/24 02:22:33;;;;;;;5.68;4.82;;;16.30;99.90;;;;;;4993136;28;20202;-49
2021/08/24 02:25:06;;;;;;;4.20;3.90;;;16.40;99.90;;;;;;4993651;28;20211;-50
2021/08/24 02:27:37;;;;;;;6.05;4.15;;;16.60;99.90;;;;;;4987273;28;20199;-49
2021/08/24 02:30:04;;;;;;;5.25;4.57;;;16.20;99.90;;;;;;4992656;28;20218;-49
2021/08/24 02:32:34;;;;;;;4.50;4.10;;;16.00;99.90;;;;;;4992200;28;20691;-50
2021/08/24 02:35:17;;;;;;;4.80;4.40;;;16.30;99.90;;;;;;4990472;28;20187;-49
2021/08/24 02:37:54;;;;;;;4.25;3.90;;;16.30;99.90;;;;;;4987678;28;20235;-50
2021/08/24 02:40:34;;;;;;;4.72;4.32;;;16.00;99.90;;;;;;4982701;28;20187;-49
2021/08/24 02:43:24;;;;;;;5.70;4.22;;;16.00;99.90;;;;;;4988660;28;20534;-51
2021/08/24 02:46:27;;;;;;;4.10;3.70;;;16.00;99.90;;;;;;4993042;28;20207;-50
2021/08/24 02:48:58;;;;;;;5.40;4.90;;;16.00;99.90;;;;;;4912932;29;20182;-51
2021/08/24 02:51:25;;;;;;;4.85;4.40;;;15.80;99.90;;;;;;4973277;28;20291;-51
2021/08/24 02:53:57;;;;;;;5.10;4.60;;;15.60;99.90;;;;;;4992253;28;20176;-51
2021/08/24 02:56:23;;;;;;;4.57;4.18;;;15.80;99.90;;;;;;4991289;28;20214;-51
2021/08/24 02:58:49;;;;;;;5.80;4.70;;;15.60;99.90;;;;;;4991867;28;20215;-51
2021/08/24 03:01:15;;;;;;;8.00;4.43;;;15.50;99.90;;;;;;4992014;28;20643;-51
2021/08/24 03:03:40;;;;;;;4.83;4.43;;;15.70;99.90;;;;;;4992878;28;20237;-51
2021/08/24 03:06:06;;;;;;;5.40;4.90;;;15.70;99.90;;;;;;4989147;28;20240;-51
2021/08/24 03:08:32;;;;;;;4.47;4.17;;;15.50;99.90;;;;;;4992680;28;20263;-50
2021/08/24 03:10:59;;;;;;;5.28;4.70;;;15.40;99.90;;;;;;4989688;28;20662;-51
2021/08/24 03:13:41;;;;;;;5.25;4.85;;;15.50;99.90;;;;;;4991972;28;20274;-51
2021/08/24 03:16:25;;;;;;;5.78;5.28;;;15.30;99.90;;;;;;4983150;28;20882;-50
2021/08/24 03:18:57;;;;;;;5.70;5.20;;;15.50;99.90;;;;;;4991157;28;20363;-51
2021/08/24 03:21:27;;;;;;;6.05;5.45;;;15.00;99.90;;;;;;4986192;28;20187;-51
2021/08/24 03:23:54;;;;;;;8.40;5.68;;;15.00;99.90;;;;;;4992387;28;20555;-51
2021/08/24 03:26:26;;;;;;;5.70;5.20;;;14.80;99.90;;;;;;4990095;28;20215;-51
2021/08/24 03:28:52;;;;;;;6.43;5.82;;;14.50;99.90;;;;;;4991703;28;20176;-51
2021/08/24 03:31:19;;;;;;;6.67;6.07;;;14.50;99.90;;;;;;4991615;28;20559;-51
2021/08/24 03:33:45;;;;;;;6.88;6.18;;;14.60;99.90;;;;;;4991122;28;20427;-51
2021/08/24 03:36:12;;;;;;;6.90;6.30;;;14.80;99.90;;;;;;4984646;28;20604;-50
2021/08/24 03:38:38;;;;;;;6.57;5.88;;;14.60;99.90;;;;;;4990124;28;20183;-51
2021/08/24 03:41:05;;;;;;;8.07;5.90;;;14.60;99.90;;;;;;4980959;28;20191;-51
2021/08/24 03:43:31;;;;;;;7.43;5.28;;;14.60;99.90;;;;;;4991851;28;20476;-51
2021/08/24 03:45:57;;;;;;;6.18;5.57;;;14.50;99.90;;;;;;4991563;28;20226;-51
2021/08/24 03:48:23;;;;;;;6.67;6.07;;;14.40;99.90;;;;;;4991459;28;20188;-51
2021/08/24 03:50:48;;;;;;;6.43;5.80;;;14.40;99.90;;;;;;4986682;28;20189;-50
2021/08/24 03:53:14;;;;;;;7.43;6.83;;;13.80;99.90;;;;;;4990853;28;20187;-51
2021/08/24 03:55:40;;;;;;;8.13;6.77;;;14.30;99.90;;;;;;4989106;28;20333;-51
2021/08/24 03:58:05;;;;;;;10.87;9.60;;;14.30;99.90;;;;;;4990957;28;20179;-51
2021/08/24 04:00:31;;;;;;;6.40;5.80;;;14.50;99.90;;;;;;4989935;28;20234;-51
2021/08/24 04:02:57;;;;;;;5.57;5.07;;;14.50;99.90;;;;;;4990758;28;20736;-50
2021/08/24 04:05:23;;;;;;;6.43;5.90;;;14.20;99.90;;;;;;4987686;28;20778;-50
2021/08/24 04:07:48;;;;;;;6.37;5.77;;;14.00;99.90;;;;;;4990581;28;20210;-51
2021/08/24 04:10:14;;;;;;;6.73;5.73;;;14.50;99.90;;;;;;4991014;28;20187;-50
2021/08/24 04:12:40;;;;;;;7.67;6.97;;;14.10;99.90;;;;;;4985373;28;20172;-50
2021/08/24 04:15:09;;;;;;;9.53;6.17;;;14.10;99.90;;;;;;4991136;28;20442;-49
2021/08/24 04:17:39;;;;;;;7.30;6.65;;;14.10;99.90;;;;;;4991505;28;20521;-51
2021/08/24 04:20:09;;;;;;;6.78;6.18;;;13.80;99.90;;;;;;4990803;28;20708;-50
2021/08/24 04:22:35;;;;;;;6.90;6.03;;;13.90;99.90;;;;;;4984643;28;20188;-51
2021/08/24 04:25:01;;;;;;;7.30;6.60;;;14.00;99.90;;;;;;4991158;28;20294;-50
2021/08/24 04:27:27;;;;;;;7.90;7.20;;;13.90;99.90;;;;;;4986886;28;20642;-50
2021/08/24 04:29:53;;;;;;;8.07;7.22;;;13.80;99.90;;;;;;4984180;28;20943;-50
2021/08/24 04:32:25;;;;;;;8.13;6.00;;;14.20;99.90;;;;;;4990765;28;20183;-50
2021/08/24 04:34:51;;;;;;;6.50;6.00;;;13.80;99.90;;;;;;4984179;28;20210;-50
2021/08/24 04:37:17;;;;;;;6.63;6.03;;;14.20;99.90;;;;;;4989920;28;20218;-52
2021/08/24 04:39:42;;;;;;;7.20;6.53;;;13.80;99.90;;;;;;4990690;28;20649;-52
2021/08/24 04:42:08;;;;;;;7.00;5.53;;;14.00;99.90;;;;;;4988777;28;20183;-52
2021/08/24 04:44:34;;;;;;;6.40;5.80;;;13.80;99.90;;;;;;4991354;28;20246;-52
2021/08/24 04:46:59;;;;;;;7.17;6.33;;;13.70;99.90;;;;;;4990319;28;20199;-52
2021/08/24 04:49:25;;;;;;;7.50;6.80;;;13.80;99.90;;;;;;4989896;28;20382;-52
2021/08/24 04:51:51;;;;;;;7.30;6.60;;;13.60;99.90;;;;;;4984869;28;20222;-52
2021/08/24 04:54:17;;;;;;;9.17;6.90;;;13.90;99.90;;;;;;4990238;28;20466;-52
2021/08/24 04:56:43;;;;;;;7.32;6.63;;;13.80;99.90;;;;;;4987753;28;20260;-51
2021/08/24 04:59:09;;;;;;;7.03;6.25;;;13.60;99.90;;;;;;4990346;28;20259;-52
2021/08/24 05:01:35;;;;;;;7.32;6.70;;;13.80;99.90;;;;;;4990061;28;20195;-52
2021/08/24 05:04:01;;;;;;;16.93;15.27;;;13.50;99.90;;;;;;4989761;28;20199;-52
2021/08/24 05:06:27;;;;;;;7.73;6.93;;;13.60;99.90;;;;;;4977783;28;20626;-52
2021/08/24 05:08:53;;;;;;;8.27;6.38;;;13.70;99.90;;;;;;4989569;28;20494;-52
2021/08/24 05:11:18;;;;;;;7.07;6.43;;;13.50;99.90;;;;;;4980510;28;20215;-52
2021/08/24 05:13:45;;;;;;;8.23;7.53;;;13.60;99.90;;;;;;4990264;28;20258;-52
2021/08/24 05:16:11;;;;;;;7.22;6.63;;;13.40;99.90;;;;;;4978301;28;20215;-52
2021/08/24 05:18:38;;;;;;;7.05;6.28;;;13.70;99.90;;;;;;4987265;28;20202;-52
2021/08/24 05:21:07;;;;;;;6.93;6.22;;;13.40;99.90;;;;;;4974719;28;20199;-49
2021/08/24 05:23:33;;;;;;;7.30;6.60;;;13.70;99.90;;;;;;4990392;28;20191;-50
2021/08/24 05:26:05;;;;;;;8.15;6.25;;;13.60;99.90;;;;;;4987677;28;20215;-50
2021/08/24 05:28:30;;;;;;;6.47;5.88;;;13.90;99.90;;;;;;4989104;28;20542;-49
2021/08/24 05:30:56;;;;;;;11.13;8.73;;;13.90;99.90;;;;;;4989804;28;20194;-50
2021/08/24 05:33:22;;;;;;;7.00;5.80;;;14.00;99.90;;;;;;4990507;28;20187;-50
2021/08/24 05:35:47;;;;;;;6.47;5.93;;;13.90;99.90;;;;;;4986741;28;20188;-50
2021/08/24 05:38:13;;;;;;;7.07;6.37;;;14.30;99.90;;;;;;4989982;28;20442;-49
2021/08/24 05:40:39;;;;;;;7.10;6.50;;;14.30;99.90;;;;;;4983689;28;20266;-50
2021/08/24 05:43:05;;;;;;;7.00;6.30;;;14.40;99.90;;;;;;4989212;28;20187;-50
2021/08/24 05:45:31;;;;;;;8.00;7.20;;;14.40;99.90;;;;;;4989601;28;20696;-51
2021/08/24 05:47:56;;;;;;;6.90;5.90;;;14.40;99.90;;;;;;4984447;28;20213;-50
2021/08/24 05:50:24;;;;;;;8.07;5.63;;;14.30;99.90;;;;;;4990114;28;20700;-52
2021/08/24 05:52:50;;;;;;;7.03;6.30;;;14.70;99.90;;;;;;4993673;28;20238;-56
2021/08/24 05:55:16;;;;;;;6.90;6.30;;;14.50;99.90;;;;;;4991113;28;20562;-51
2021/08/24 05:57:42;;;;;;;7.60;6.80;;;14.80;99.90;;;;;;4988408;28;20466;-51
2021/08/24 06:00:08;;;;;;;6.60;6.10;;;14.90;99.90;;;;;;4993060;28;20688;-51
2021/08/24 06:02:39;;;;;;;6.70;5.97;;;15.10;99.90;;;;;;4993460;28;20206;-51
2021/08/24 06:05:07;;;;;;;7.20;6.57;;;15.20;99.90;;;;;;4992338;28;20866;-51
2021/08/24 06:07:33;;;;;;;7.28;6.57;;;15.40;99.90;;;;;;4991313;28;20208;-51
2021/08/24 06:09:59;;;;;;;7.73;6.80;;;15.80;99.90;;;;;;4992473;28;20226;-52
2021/08/24 06:12:25;;;;;;;7.35;6.65;;;16.00;99.90;;;;;;4987770;28;20438;-51
2021/08/24 06:14:51;;;;;;;8.90;6.57;;;15.80;99.90;;;;;;4993158;28;20249;-51
2021/08/24 06:17:17;;;;;;;6.30;5.80;;;16.20;99.90;;;;;;4981907;28;20218;-53
2021/08/24 06:19:43;;;;;;;7.43;6.73;;;16.20;99.90;;;;;;4992532;28;20290;-54
2021/08/24 06:22:09;;;;;;;7.43;6.63;;;16.40;99.90;;;;;;4992573;28;20379;-54
2021/08/24 06:24:36;;;;;;;7.43;6.70;;;16.30;99.90;;;;;;4992899;28;20614;-53
2021/08/24 06:27:03;;;;;;;6.97;5.90;;;16.00;99.90;;;;;;4990610;28;20191;-53
2021/08/24 06:29:29;;;;;;;6.57;5.40;;;16.30;99.90;;;;;;4992450;28;20188;-52
2021/08/24 06:31:59;;;;;;;6.00;5.43;;;16.20;99.90;;;;;;4993283;28;20194;-51
2021/08/24 06:34:25;;;;;;;5.80;5.30;;;16.60;99.90;;;;;;4990009;28;20187;-52
2021/08/24 06:36:52;;;;;;;5.50;5.00;;;16.50;99.90;;;;;;4992867;28;20208;-50
2021/08/24 06:39:18;;;;;;;5.70;5.10;;;16.90;99.90;;;;;;4992512;28;20179;-52
2021/08/24 06:41:44;;;;;;;5.68;5.05;;;16.50;99.90;;;;;;4990580;28;20196;-50
2021/08/24 06:44:11;;;;;;;6.13;5.43;;;16.80;99.90;;;;;;4992049;28;20187;-51
2021/08/24 06:46:37;;;;;;;6.13;5.63;;;16.70;99.90;;;;;;4991718;28;20884;-52
2021/08/24 06:49:04;;;;;;;6.03;5.10;;;16.90;99.90;;;;;;4992285;28;20184;-52
2021/08/24 06:51:30;;;;;;;5.75;5.25;;;17.00;99.90;;;;;;4983414;28;20180;-52
2021/08/24 06:53:56;;;;;;;5.13;4.63;;;17.30;99.90;;;;;;4992381;28;20661;-51
2021/08/24 06:56:21;;;;;;;12.00;5.05;;;17.30;99.90;;;;;;4991390;28;20221;-52
2021/08/24 06:58:47;;;;;;;5.27;4.80;;;17.20;99.90;;;;;;4992730;28;20274;-53
2021/08/24 07:01:18;;;;;;;5.00;4.53;;;17.10;99.90;;;;;;4993217;28;20547;-51
2021/08/24 07:03:44;;;;;;;7.88;5.03;;;17.00;99.90;;;;;;4990708;28;20442;-51
2021/08/24 07:06:10;;;;;;;4.20;3.80;;;16.60;99.90;;;;;;4985163;28;20261;-54
2021/08/24 07:08:36;;;;;;;4.30;3.90;;;16.50;99.90;;;;;;4988512;28;20497;-50
2021/08/24 07:11:02;;;;;;;5.40;4.90;;;16.90;99.90;;;;;;4990629;28;20268;-53
2021/08/24 07:13:28;;;;;;;5.90;4.20;;;17.00;99.90;;;;;;4992921;28;20191;-51
2021/08/24 07:15:55;;;;;;;6.00;5.10;;;16.90;99.90;;;;;;4992732;28;20184;-52
2021/08/24 07:18:26;;;;;;;5.55;4.55;;;17.00;99.90;;;;;;4991976;28;20190;-52
2021/08/24 07:20:53;;;;;;;5.68;4.40;;;17.00;99.90;;;;;;4987940;28;20191;-51
2021/08/24 07:23:19;;;;;;;5.53;4.75;;;16.90;99.90;;;;;;4983475;28;20180;-51
2021/08/24 07:25:46;;;;;;;4.60;4.10;;;16.90;99.90;;;;;;4988916;28;20590;-52
2021/08/24 07:28:12;;;;;;;4.78;4.38;;;17.20;99.90;;;;;;4990630;28;20587;-52
2021/08/24 07:30:40;;;;;;;4.35;3.95;;;17.00;99.90;;;;;;4990899;28;20326;-51
2021/08/24 07:33:06;;;;;;;5.50;4.50;;;17.20;99.90;;;;;;4991594;28;20540;-51
2021/08/24 07:35:32;;;;;;;4.30;3.92;;;17.00;99.90;;;;;;4990275;28;20179;-52
2021/08/24 07:37:58;;;;;;;6.17;4.60;;;16.70;99.90;;;;;;4980732;28;20258;-52
2021/08/24 07:40:24;;;;;;;5.53;4.43;;;16.70;99.90;;;;;;4991064;28;20552;-51
2021/08/24 07:42:50;;;;;;;4.47;4.17;;;16.20;99.90;;;;;;4991980;28;20329;-50
2021/08/24 07:45:16;;;;;;;5.50;4.30;;;16.50;99.90;;;;;;4991049;28;21994;-50
2021/08/24 07:47:41;;;;;;;4.27;3.90;;;16.60;99.90;;;;;;4991269;28;20195;-51
2021/08/24 07:50:08;;;;;;;4.80;4.40;;;16.90;99.90;;;;;;4987993;28;20328;-51
2021/08/24 07:52:34;;;;;;;4.90;4.25;;;16.60;99.90;;;;;;4991272;28;20816;-51
2021/08/24 07:55:00;;;;;;;5.50;4.10;;;16.90;99.90;;;;;;4992050;28;20195;-50
2021/08/24 07:57:25;;;;;;;5.10;4.60;;;16.70;99.90;;;;;;4978335;28;20458;-50
2021/08/24 07:59:51;;;;;;;11.43;4.10;;;17.20;99.90;;;;;;4986485;28;20198;-50
2021/08/24 08:02:18;;;;;;;4.50;3.70;;;17.30;99.90;;;;;;4991675;28;20233;-52
2021/08/24 08:04:45;;;;;;;4.30;3.90;;;17.40;99.90;;;;;;4989650;28;20199;-52
2021/08/24 08:07:11;;;;;;;4.97;4.35;;;17.40;99.90;;;;;;4990236;28;20212;-51
2021/08/24 08:09:37;;;;;;;5.07;4.50;;;17.60;99.90;;;;;;4990628;28;20215;-51
2021/08/24 08:12:03;;;;;;;4.30;4.00;;;17.50;99.90;;;;;;4985314;28;20192;-51
2021/08/24 08:14:29;;;;;;;4.20;3.90;;;17.30;99.90;;;;;;4990948;28;20864;-50
2021/08/24 08:16:55;;;;;;;4.28;3.97;;;17.50;99.90;;;;;;4991083;28;20352;-50
2021/08/24 08:19:21;;;;;;;7.10;3.70;;;17.70;99.90;;;;;;4983971;28;20197;-52
2021/08/24 08:21:47;;;;;;;4.67;4.27;;;17.60;99.90;;;;;;4988969;28;20183;-52
2021/08/24 08:24:12;;;;;;;4.63;4.00;;;17.70;99.90;;;;;;4991016;28;20192;-51
2021/08/24 08:26:39;;;;;;;3.77;3.43;;;17.90;99.90;;;;;;4990589;28;20218;-51
2021/08/24 08:29:09;;;;;;;3.45;3.15;;;17.70;99.90;;;;;;4989750;28;20209;-50
2021/08/24 08:31:37;;;;;;;3.90;3.55;;;17.90;99.90;;;;;;4988364;28;20190;-51
2021/08/24 08:34:02;;;;;;;4.38;3.05;;;17.80;99.90;;;;;;4987102;28;20212;-52
2021/08/24 08:36:28;;;;;;;3.37;3.17;;;18.00;99.90;;;;;;4983293;28;20246;-51
2021/08/24 08:38:54;;;;;;;3.80;3.50;;;18.00;99.90;;;;;;4990566;28;20736;-52
2021/08/24 08:41:32;;;;;;;3.90;3.03;;;17.70;99.90;;;;;;4986540;28;20451;-51
2021/08/24 08:44:11;;;;;;;2.97;2.60;;;17.80;99.90;;;;;;4990789;28;20175;-51
2021/08/24 08:46:59;;;;;;;3.83;3.50;;;17.70;99.90;;;;;;4989937;28;20222;-52
2021/08/24 08:49:39;;;;;;;3.75;3.45;;;18.60;99.90;;;;;;4990746;28;20192;-51
2021/08/24 08:52:17;;;;;;;3.53;3.22;;;18.70;99.90;;;;;;4990161;28;20215;-51
2021/08/24 08:55:18;;;;;;;4.40;4.00;;;19.00;99.90;;;;;;4990943;28;20179;-50
2021/08/24 08:58:02;;;;;;;5.30;4.20;;;19.20;99.90;;;;;;4941383;29;20800;-50
2021/08/24 09:00:52;;;;;;;4.43;4.00;;;18.90;99.90;;;;;;4985636;28;20195;-49
2021/08/24 09:04:02;;;;;;;4.47;4.18;;;18.80;99.90;;;;;;4989629;28;20187;-51
2021/08/24 09:06:27;;;;;;;4.72;4.32;;;18.30;99.90;;;;;;4946313;29;20224;-51
2021/08/24 09:08:56;;;;;;;5.30;4.70;;;18.30;99.90;;;;;;4981237;28;20600;-51
2021/08/24 09:11:36;;;;;;;4.68;4.28;;;17.90;99.90;;;;;;4982335;28;20519;-49
2021/08/24 09:14:16;;;;;;;5.28;4.78;;;18.00;99.90;;;;;;4990215;28;20187;-50
2021/08/24 09:16:50;;;;;;;4.30;3.90;;;18.00;99.90;;;;;;4992308;28;20220;-51
2021/08/24 09:19:24;;;;;;;5.05;4.65;;;17.90;99.90;;;;;;4987708;28;20195;-51
2021/08/24 09:21:51;;;;;;;4.32;4.03;;;17.60;99.90;;;;;;4994426;28;20214;-50
2021/08/24 09:24:19;;;;;;;5.10;4.60;;;17.50;99.90;;;;;;4993101;28;20214;-51
2021/08/24 09:26:44;;;;;;;3.95;3.65;;;17.50;99.90;;;;;;4992681;28;20394;-52
2021/08/24 09:29:10;;;;;;;5.90;4.70;;;17.80;99.90;;;;;;4991549;28;20750;-51
2021/08/24 09:31:36;;;;;;;5.57;5.07;;;17.70;99.90;;;;;;4986778;28;20188;-51
2021/08/24 09:34:03;;;;;;;4.73;4.20;;;17.60;99.90;;;;;;4986852;28;20469;-50
2021/08/24 09:36:28;;;;;;;5.40;4.20;;;17.60;99.90;;;;;;4994362;28;20512;-50
2021/08/24 09:38:57;;;;;;;4.40;4.10;;;17.70;99.90;;;;;;4994507;28;20200;-50
2021/08/24 09:41:29;;;;;;;4.15;3.80;;;17.70;99.90;;;;;;4990346;28;20211;-51
2021/08/24 09:44:18;;;;;;;4.68;4.28;;;17.60;99.90;;;;;;4992674;28;20192;-51
2021/08/24 09:46:44;;;;;;;5.95;4.45;;;17.80;99.90;;;;;;4981933;28;20655;-51
2021/08/24 09:49:21;;;;;;;5.95;4.10;;;18.10;99.90;;;;;;4988531;28;20190;-51
2021/08/24 09:51:55;;;;;;;4.60;3.72;;;18.20;99.90;;;;;;4993638;28;20182;-51
2021/08/24 09:54:20;;;;;;;4.03;3.63;;;18.30;99.90;;;;;;4994301;28;20233;-51
2021/08/24 09:56:52;;;;;;;4.13;3.23;;;18.30;99.90;;;;;;4993665;28;20704;-51
2021/08/24 09:59:35;;;;;;;4.53;4.22;;;18.50;99.90;;;;;;4990881;28;20240;-52
2021/08/24 10:02:02;;;;;;;3.90;3.60;;;18.40;99.90;;;;;;4987745;28;20184;-52
2021/08/24 10:04:28;;;;;;;4.85;4.45;;;18.50;99.90;;;;;;4993397;28;20180;-53
2021/08/24 10:06:54;;;;;;;5.13;4.13;;;18.50;99.90;;;;;;4989704;28;20807;-53
2021/08/24 10:09:32;;;;;;;4.33;4.03;;;18.50;99.90;;;;;;4988734;28;20183;-53
2021/08/24 10:12:18;;;;;;;4.30;4.00;;;18.60;99.90;;;;;;4990095;28;20189;-51
2021/08/24 10:14:44;;;;;;;3.88;3.55;;;19.00;99.90;;;;;;4993481;28;20179;-50
2021/08/24 10:17:30;;;;;;;3.97;3.67;;;19.20;99.90;;;;;;4992870;28;20233;-51
2021/08/24 10:19:57;;;;;;;3.70;3.40;;;18.90;99.90;;;;;;4987012;28;20198;-51
2021/08/24 10:22:33;;;;;;;3.83;3.53;;;19.00;99.90;;;;;;4987628;28;20195;-52
2021/08/24 10:25:20;;;;;;;3.90;3.50;;;19.10;99.90;;;;;;4993086;28;20743;-51
2021/08/24 10:27:59;;;;;;;3.53;3.33;;;19.40;99.90;;;;;;4984685;28;20201;-49
2021/08/24 10:30:43;;;;;;;4.55;4.18;;;19.50;99.90;;;;;;4992714;28;20269;-51
2021/08/24 10:33:25;;;;;;;5.75;4.05;;;19.50;99.90;;;;;;4992054;28;20269;-50
2021/08/24 10:35:56;;;;;;;4.53;4.20;;;19.20;99.90;;;;;;4988207;28;20183;-50
2021/08/24 10:38:53;;;;;;;4.80;4.20;;;19.20;99.90;;;;;;4992663;28;20466;-50
2021/08/24 10:41:27;;;;;;;4.72;4.30;;;19.20;99.90;;;;;;4986960;28;20435;-51
2021/08/24 10:43:58;;;;;;;5.50;5.10;;;19.10;99.90;;;;;;4987026;28;20242;-51
2021/08/24 10:46:24;;;;;;;5.03;4.63;;;19.10;99.90;;;;;;4992130;28;20261;-50
2021/08/24 10:48:51;;;;;;;4.15;3.85;;;19.20;99.90;;;;;;4991795;28;20838;-51
2021/08/24 10:51:33;;;;;;;4.30;3.90;;;19.40;99.90;;;;;;4984458;28;20613;-51
2021/08/24 10:54:16;;;;;;;4.25;3.90;;;19.40;99.90;;;;;;4992379;28;20641;-50
2021/08/24 10:56:46;;;;;;;4.50;3.95;;;19.30;99.90;;;;;;4987885;28;20275;-51
2021/08/24 10:59:30;;;;;;;4.72;4.32;;;19.30;99.90;;;;;;4991693;28;20245;-51
2021/08/24 11:02:12;;;;;;;4.43;4.03;;;19.10;99.90;;;;;;4991985;28;20192;-50
2021/08/24 11:04:41;;;;;;;4.60;4.30;;;19.00;99.90;;;;;;4991938;28;20215;-51
2021/08/24 11:07:25;;;;;;;4.20;3.90;;;19.20;99.90;;;;;;4987612;28;20203;-50
2021/08/24 11:09:55;;;;;;;6.65;5.60;;;19.20;99.90;;;;;;4991484;28;20214;-50
2021/08/24 11:12:45;;;;;;;4.35;3.95;;;19.30;99.90;;;;;;4985179;28;20183;-50
2021/08/24 11:15:47;;;;;;;5.50;5.00;;;19.60;99.90;;;;;;4992048;28;20183;-48
2021/08/24 11:18:18;;;;;;;4.45;4.13;;;19.80;99.90;;;;;;4991386;28;20507;-48
2021/08/24 11:21:16;;;;;;;4.07;3.75;;;19.80;99.90;;;;;;4991553;28;20661;-50
2021/08/24 11:23:54;;;;;;;5.05;4.65;;;19.90;99.90;;;;;;4965965;28;20206;-48
2021/08/24 11:26:34;;;;;;;4.85;4.45;;;20.00;99.90;;;;;;4988344;28;20214;-48
2021/08/24 11:29:11;;;;;;;3.78;3.40;;;19.90;99.50;;;;;;4991966;28;20564;-49
2021/08/24 11:31:50;;;;;;;4.43;4.13;;;19.90;99.90;;;;;;4992513;28;20520;-49
2021/08/24 11:34:26;;;;;;;4.72;4.22;;;19.70;99.80;;;;;;4991578;28;20550;-49
2021/08/24 11:37:00;;;;;;;4.20;3.80;;;19.60;99.60;;;;;;4978770;28;20285;-49
2021/08/24 11:40:01;;;;;;;4.65;4.35;;;19.60;99.90;;;;;;4991271;28;20195;-49
2021/08/24 11:42:31;;;;;;;3.85;3.55;;;19.60;99.90;;;;;;4987014;28;20221;-49
2021/08/24 11:44:59;;;;;;;5.05;4.00;;;19.60;99.90;;;;;;4991379;28;20216;-49
2021/08/24 11:47:53;;;;;;;4.03;3.72;;;19.70;99.90;;;;;;4991935;28;20207;-49
2021/08/24 11:50:33;;;;;;;4.05;3.75;;;19.70;99.90;;;;;;4980213;28;20249;-50
2021/08/24 11:53:14;;;;;;;4.57;4.18;;;19.90;99.90;;;;;;4990972;28;20181;-50
2021/08/24 11:55:42;;;;;;;6.88;4.18;;;19.90;99.70;;;;;;4990651;28;20596;-50
2021/08/24 11:58:40;;;;;;;7.43;4.32;;;20.40;99.50;;;;;;4991214;28;20191;-50
2021/08/24 12:01:08;;;;;;;5.53;5.03;;;20.60;99.00;;;;;;4991750;28;20187;-50
2021/08/24 12:03:37;;;;;;;4.78;4.38;;;20.60;99.10;;;;;;4991503;28;20257;-50
2021/08/24 12:06:06;;;;;;;4.40;4.00;;;20.70;99.20;;;;;;4987550;28;20656;-50
2021/08/24 12:08:40;;;;;;;4.45;4.05;;;20.50;98.90;;;;;;4991031;28;20548;-50
2021/08/24 12:11:10;;;;;;;5.28;3.50;;;20.40;99.50;;;;;;4985939;28;20702;-50
2021/08/24 12:13:49;;;;;;;4.75;4.35;;;20.90;98.70;;;;;;4986744;28;20270;-50
2021/08/24 12:16:21;;;;;;;4.45;4.05;;;21.10;98.10;;;;;;4991113;28;20294;-50
2021/08/24 12:18:52;;;;;;;4.20;3.90;;;21.00;98.20;;;;;;4990816;28;20287;-49
2021/08/24 12:21:47;;;;;;;4.50;3.63;;;21.10;98.00;;;;;;4979324;28;20227;-50
2021/08/24 12:24:28;;;;;;;5.78;4.55;;;21.10;98.10;;;;;;4978169;28;20190;-50
2021/08/24 12:26:57;;;;;;;5.10;4.60;;;20.90;98.90;;;;;;4987469;28;20215;-51
2021/08/24 12:29:35;;;;;;;4.90;4.50;;;20.60;99.30;;;;;;4986100;28;20242;-51
2021/08/24 12:32:21;;;;;;;5.13;4.72;;;20.90;98.90;;;;;;4988564;28;20182;-52
2021/08/24 12:35:05;;;;;;;6.60;6.00;;;21.00;98.40;;;;;;4981352;28;20197;-51
2021/08/24 12:37:31;;;;;;;5.57;5.07;;;20.80;98.40;;;;;;4984945;28;20262;-51
2021/08/24 12:40:06;;;;;;;4.77;4.30;;;20.60;98.80;;;;;;4986390;28;20187;-51
2021/08/24 12:42:37;;;;;;;4.50;4.20;;;20.40;99.20;;;;;;4984858;28;20262;-50
2021/08/24 12:45:02;;;;;;;4.72;4.38;;;20.40;99.10;;;;;;4990390;28;20287;-51
2021/08/24 12:47:39;;;;;;;5.00;4.43;;;20.20;99.40;;;;;;4990089;28;20240;-50
2021/08/24 12:50:07;;;;;;;5.10;4.70;;;19.70;99.90;;;;;;4986582;28;20281;-51
2021/08/24 12:52:42;;;;;;;8.95;5.00;;;19.80;99.90;;;;;;4988983;28;20188;-51
2021/08/24 12:55:29;;;;;;;4.30;3.95;;;19.80;99.90;;;;;;4990048;28;20560;-51
2021/08/24 12:58:22;;;;;;;5.30;4.80;;;19.90;99.90;;;;;;4995678;28;20206;-51
2021/08/24 13:01:08;;;;;;;4.70;4.25;;;19.80;99.90;;;;;;4983225;28;20180;-52
2021/08/24 13:03:38;;;;;;;6.00;4.95;;;19.80;99.90;;;;;;4984595;28;20281;-52
2021/08/24 13:06:26;;;;;;;4.82;4.47;;;19.90;99.90;;;;;;4986367;28;20207;-51
2021/08/24 13:09:18;;;;;;;4.85;4.45;;;19.90;99.90;;;;;;4988148;28;20581;-51